createdAt,value
2022-12-14T00:02:02.974Z,73.73
2022-12-14T00:04:31.364Z,74.24
2022-12-14T00:06:59.457Z,73.36
2022-12-14T00:09:28.968Z,72.88
2022-12-14T00:11:57.097Z,72.92
2022-12-14T00:14:25.472Z,73.83
2022-12-14T00:16:53.583Z,73.91
2022-12-14T00:19:21.741Z,73.76
2022-12-14T00:21:49.805Z,73.48
2022-12-14T00:24:17.927Z,73.75
2022-12-14T00:26:47.410Z,73.59
2022-12-14T00:29:15.525Z,74.13
2022-12-14T00:31:43.672Z,74.75
2022-12-14T00:34:17.167Z,74.94
2022-12-14T00:36:45.274Z,74.18
2022-12-14T00:39:13.363Z,74.40
2022-12-14T00:41:41.484Z,75.01
2022-12-14T00:44:10.955Z,75.10
2022-12-14T00:46:39.166Z,75.03
2022-12-14T00:49:07.517Z,75.14
2022-12-14T00:51:35.694Z,74.69
2022-12-14T00:54:03.857Z,74.84
2022-12-14T00:56:32.009Z,74.88
2022-12-14T00:59:00.462Z,74.96
2022-12-14T01:01:30.528Z,74.78
2022-12-14T01:04:17.107Z,75.12
2022-12-14T01:06:46.133Z,75.29
2022-12-14T01:09:14.889Z,75.36
2022-12-14T01:11:44.374Z,75.55
2022-12-14T01:14:16.113Z,74.73
2022-12-14T01:16:45.871Z,74.13
2022-12-14T01:19:16.189Z,74.35
2022-12-14T01:21:44.637Z,74.01
2022-12-14T01:24:12.710Z,74.30
2022-12-14T01:26:41.530Z,74.76
2022-12-14T01:29:09.782Z,74.69
2022-12-14T01:31:40.003Z,74.52
2022-12-14T01:34:10.519Z,74.80
2022-12-14T01:36:39.710Z,74.94
2022-12-14T01:39:13.478Z,74.53
2022-12-14T01:41:44.193Z,74.78
2022-12-14T01:45:05.178Z,74.98
2022-12-14T01:47:43.841Z,75.09
2022-12-14T01:50:25.482Z,74.55
2022-12-14T01:52:59.099Z,74.85
2022-12-14T01:55:32.836Z,74.33
2022-12-14T01:58:08.316Z,74.71
2022-12-14T02:00:36.552Z,74.98
2022-12-14T02:03:11.267Z,74.78
2022-12-14T02:05:47.239Z,75.10
2022-12-14T02:08:18.405Z,75.43
2022-12-14T02:10:48.122Z,75.07
2022-12-14T02:13:22.639Z,75.10
2022-12-14T02:15:51.835Z,75.31
2022-12-14T02:18:23.988Z,75.44
2022-12-14T02:21:20.201Z,75.01
2022-12-14T02:24:44.582Z,75.05
2022-12-14T02:27:33.453Z,75.25
2022-12-14T02:30:08.655Z,75.76
2022-12-14T02:33:08.839Z,75.86
2022-12-14T02:35:49.053Z,75.67
2022-12-14T02:38:34.975Z,75.50
2022-12-14T02:41:16.281Z,75.22
2022-12-14T02:43:56.152Z,75.03
2022-12-14T02:46:34.142Z,75.35
2022-12-14T02:49:10.852Z,75.17
2022-12-14T02:51:54.444Z,74.69
2022-12-14T02:54:30.422Z,74.08
2022-12-14T02:57:09.475Z,74.29
2022-12-14T02:59:38.270Z,74.40
2022-12-14T03:02:08.927Z,74.28
2022-12-14T03:04:45.826Z,73.60
2022-12-14T03:07:41.448Z,73.54
2022-12-14T03:10:22.346Z,73.72
2022-12-14T03:13:02.507Z,73.92
2022-12-14T03:15:32.459Z,73.96
2022-12-14T03:18:08.146Z,73.38
2022-12-14T03:20:39.285Z,73.13
2022-12-14T03:23:13.147Z,72.99
2022-12-14T03:25:48.808Z,73.10
2022-12-14T03:28:23.094Z,73.22
2022-12-14T03:31:00.596Z,73.39
2022-12-14T03:33:33.268Z,73.71
2022-12-14T03:36:11.577Z,73.17
2022-12-14T03:38:44.581Z,73.13
2022-12-14T03:41:24.669Z,72.60
2022-12-14T03:44:11.170Z,72.51
2022-12-14T03:46:53.842Z,73.01
2022-12-14T03:49:43.124Z,73.56
2022-12-14T03:52:24.950Z,73.08
2022-12-14T03:55:06.613Z,72.86
2022-12-14T03:57:52.829Z,73.12
2022-12-14T04:00:26.229Z,73.15
2022-12-14T04:03:11.043Z,72.99
2022-12-14T04:05:49.267Z,73.52
2022-12-14T04:08:40.128Z,73.28
2022-12-14T04:11:30.325Z,73.21
2022-12-14T04:14:25.381Z,73.26
2022-12-14T04:17:13.973Z,73.04
2022-12-14T04:19:51.628Z,73.43
2022-12-14T04:22:27.386Z,72.90
2022-12-14T04:25:20.292Z,72.71
2022-12-14T04:27:54.823Z,72.81
2022-12-14T04:30:22.087Z,72.85
2022-12-14T04:32:54.391Z,72.40
2022-12-14T04:35:28.442Z,73.19
2022-12-14T04:38:04.389Z,72.78
2022-12-14T04:40:39.193Z,73.19
2022-12-14T04:43:14.704Z,73.08
2022-12-14T04:45:50.018Z,73.46
2022-12-14T04:48:30.392Z,73.89
2022-12-14T04:51:10.485Z,73.43
2022-12-14T04:53:45.792Z,73.99
2022-12-14T04:56:24.192Z,74.26
2022-12-14T04:58:52.748Z,73.87
2022-12-14T05:01:40.959Z,73.64
2022-12-14T05:04:25.611Z,73.38
2022-12-14T05:07:07.885Z,73.28
2022-12-14T05:09:47.388Z,73.06
2022-12-14T05:12:24.384Z,72.91
2022-12-14T05:15:00.758Z,72.81
2022-12-14T05:17:29.438Z,73.44
2022-12-14T05:19:57.578Z,73.35
2022-12-14T05:22:25.700Z,72.80
2022-12-14T05:24:55.213Z,72.76
2022-12-14T05:27:23.580Z,72.48
2022-12-14T05:29:51.697Z,73.22
2022-12-14T05:32:19.764Z,73.10
2022-12-14T05:34:47.883Z,73.29
2022-12-14T05:37:18.389Z,73.87
2022-12-14T05:39:46.928Z,73.80
2022-12-14T05:42:16.627Z,73.48
2022-12-14T05:44:44.906Z,73.56
2022-12-14T05:47:13.993Z,73.92
2022-12-14T05:49:42.177Z,73.44
2022-12-14T05:52:10.342Z,73.82
2022-12-14T05:54:38.491Z,74.08
2022-12-14T05:57:06.824Z,74.00
2022-12-14T05:59:36.254Z,74.23
2022-12-14T06:02:05.018Z,74.12
2022-12-14T06:04:33.204Z,73.64
2022-12-14T06:07:01.369Z,74.03
2022-12-14T06:09:29.502Z,73.66
2022-12-14T06:11:57.760Z,73.84
2022-12-14T06:14:25.876Z,74.38
2022-12-14T06:16:55.389Z,74.96
2022-12-14T06:19:23.482Z,74.96
2022-12-14T06:21:51.612Z,74.76
2022-12-14T06:24:19.856Z,74.30
2022-12-14T06:26:47.968Z,73.94
2022-12-14T06:29:19.928Z,73.84
2022-12-14T06:31:49.065Z,73.61
2022-12-14T06:34:23.466Z,72.78
2022-12-14T06:36:54.558Z,72.62
2022-12-14T06:39:22.624Z,73.34
2022-12-14T06:41:51.967Z,73.45
2022-12-14T06:44:20.650Z,73.02
2022-12-14T06:46:48.823Z,73.10
2022-12-14T06:49:18.733Z,72.60
2022-12-14T06:51:46.954Z,72.86
2022-12-14T06:54:16.917Z,73.17
2022-12-14T06:56:47.367Z,72.40
2022-12-14T06:59:17.300Z,72.79
2022-12-14T07:01:50.230Z,73.08
2022-12-14T07:04:21.290Z,73.38
2022-12-14T07:06:49.727Z,73.22
2022-12-14T07:09:17.802Z,73.35
2022-12-14T07:11:45.891Z,73.36
2022-12-14T07:14:17.672Z,72.90
2022-12-14T07:16:48.654Z,72.85
2022-12-14T07:19:19.376Z,72.79
2022-12-14T07:21:47.605Z,72.68
2022-12-14T07:24:15.999Z,73.17
2022-12-14T07:26:44.171Z,72.76
2022-12-14T07:29:14.612Z,72.40
2022-12-14T07:31:42.723Z,72.26
2022-12-14T07:34:14.239Z,72.43
2022-12-14T07:36:44.156Z,72.20
2022-12-14T07:39:15.279Z,72.38
2022-12-14T07:41:44.578Z,72.91
2022-12-14T07:44:12.949Z,72.67
2022-12-14T07:46:42.178Z,71.58
2022-12-14T07:49:12.102Z,71.02
2022-12-14T07:51:44.151Z,71.06
2022-12-14T07:54:13.636Z,70.76
2022-12-14T07:56:44.580Z,70.83
2022-12-14T07:59:16.254Z,70.71
2022-12-14T08:01:45.577Z,70.14
2022-12-14T08:04:16.575Z,69.30
2022-12-14T08:06:47.845Z,69.49
2022-12-14T08:09:17.049Z,69.19
2022-12-14T08:11:45.349Z,69.19
2022-12-14T08:14:17.989Z,69.44
2022-12-14T08:16:46.955Z,69.38
2022-12-14T08:19:15.731Z,69.31
2022-12-14T08:21:46.292Z,68.87
2022-12-14T08:24:16.883Z,68.49
2022-12-14T08:26:49.293Z,67.66
2022-12-14T08:29:18.979Z,66.88
2022-12-14T08:31:47.223Z,66.85
2022-12-14T08:34:20.684Z,66.51
2022-12-14T08:36:50.513Z,66.18
2022-12-14T08:39:18.639Z,66.19
2022-12-14T08:41:46.756Z,66.14
2022-12-14T08:44:16.945Z,66.08
2022-12-14T08:46:45.196Z,65.97
2022-12-14T08:49:13.621Z,66.00
2022-12-14T08:51:41.988Z,65.36
2022-12-14T08:54:11.815Z,66.10
2022-12-14T08:56:40.180Z,66.56
2022-12-14T08:59:08.363Z,67.00
2022-12-14T09:01:36.582Z,65.97
2022-12-14T09:04:08.798Z,65.99
2022-12-14T09:06:40.254Z,66.48
2022-12-14T09:09:16.420Z,65.91
2022-12-14T09:11:45.456Z,65.37
2022-12-14T09:14:13.881Z,65.98
2022-12-14T09:16:42.509Z,66.35
2022-12-14T09:19:10.734Z,65.49
2022-12-14T09:21:39.739Z,64.92
2022-12-14T09:24:08.166Z,65.12
2022-12-14T09:26:37.673Z,64.76
2022-12-14T09:29:05.927Z,64.38
2022-12-14T09:31:34.080Z,64.83
2022-12-14T09:34:02.257Z,64.83
2022-12-14T09:36:30.537Z,65.09
2022-12-14T09:38:59.420Z,64.76
2022-12-14T09:41:56.365Z,64.40
2022-12-14T09:44:48.302Z,62.68
2022-12-14T09:47:22.004Z,63.31
2022-12-14T09:49:56.027Z,63.08
2022-12-14T09:52:35.340Z,63.28
2022-12-14T09:55:16.444Z,63.51
2022-12-14T09:57:49.615Z,63.45
2022-12-14T10:00:20.940Z,63.57
2022-12-14T10:03:29.753Z,62.93
2022-12-14T10:06:34.082Z,62.72
2022-12-14T10:09:17.716Z,62.47
2022-12-14T10:11:57.863Z,62.41
2022-12-14T10:14:51.009Z,62.33
2022-12-14T10:17:32.775Z,62.79
2022-12-14T10:20:14.284Z,62.73
2022-12-14T10:22:49.473Z,62.04
2022-12-14T10:25:24.701Z,62.07
2022-12-14T10:28:10.742Z,61.87
2022-12-14T10:30:43.259Z,61.85
2022-12-14T10:33:24.292Z,62.46
2022-12-14T10:35:55.503Z,62.42
2022-12-14T10:38:30.926Z,62.10
2022-12-14T10:41:13.950Z,62.18
2022-12-14T10:43:53.040Z,61.88
2022-12-14T10:46:35.287Z,62.27
2022-12-14T10:49:17.377Z,62.02
2022-12-14T10:51:51.293Z,62.30
2022-12-14T10:54:29.569Z,61.73
2022-12-14T10:56:58.100Z,62.44
2022-12-14T10:59:40.681Z,62.36
2022-12-14T11:02:18.915Z,62.61
2022-12-14T11:04:52.637Z,62.09
2022-12-14T11:07:24.937Z,62.13
2022-12-14T11:09:53.790Z,62.06
2022-12-14T11:12:26.731Z,61.65
2022-12-14T11:14:59.591Z,60.84
2022-12-14T11:17:36.230Z,61.48
2022-12-14T11:20:18.847Z,61.47
2022-12-14T11:22:51.422Z,62.24
2022-12-14T11:25:35.114Z,62.64
2022-12-14T11:28:17.905Z,63.12
2022-12-14T11:30:58.333Z,62.72
2022-12-14T11:33:35.764Z,63.39
2022-12-14T11:36:04.392Z,64.25
2022-12-14T11:38:33.189Z,64.60
2022-12-14T11:41:11.150Z,64.70
2022-12-14T11:43:41.135Z,64.81
2022-12-14T11:46:09.408Z,64.46
2022-12-14T11:48:50.029Z,63.50
2022-12-14T11:51:18.147Z,62.82
2022-12-14T11:54:03.627Z,62.60
2022-12-14T11:56:31.969Z,62.53
2022-12-14T11:59:00.486Z,62.34
2022-12-14T12:01:29.061Z,61.48
2022-12-14T12:04:00.590Z,62.29
2022-12-14T12:06:31.106Z,62.51
2022-12-14T12:09:03.665Z,62.84
2022-12-14T12:11:35.741Z,62.74
2022-12-14T12:14:14.680Z,62.84
2022-12-14T12:16:45.559Z,63.17
2022-12-14T12:19:26.216Z,62.86
2022-12-14T12:21:56.957Z,63.19
2022-12-14T12:24:30.598Z,63.24
2022-12-14T12:27:01.489Z,63.64
2022-12-14T12:29:38.418Z,63.85
2022-12-14T12:32:14.125Z,64.30
2022-12-14T12:34:52.410Z,64.25
2022-12-14T12:37:30.231Z,64.84
2022-12-14T12:40:05.646Z,64.29
2022-12-14T12:42:45.689Z,64.18
2022-12-14T12:45:22.536Z,64.91
2022-12-14T12:48:00.189Z,64.60
2022-12-14T12:50:36.599Z,64.15
2022-12-14T12:53:11.706Z,62.55
2022-12-14T12:55:46.210Z,61.90
2022-12-14T12:58:23.688Z,63.00
2022-12-14T13:00:56.011Z,63.77
2022-12-14T13:03:32.287Z,64.02
2022-12-14T13:06:14.916Z,64.01
2022-12-14T13:08:47.814Z,64.64
2022-12-14T13:11:26.587Z,65.32
2022-12-14T13:14:03.138Z,65.23
2022-12-14T13:16:35.984Z,66.14
2022-12-14T13:19:50.388Z,66.11
2022-12-14T13:22:15.132Z,66.28
2022-12-14T13:24:47.977Z,66.75
2022-12-14T13:27:45.431Z,66.86
2022-12-14T13:30:31.402Z,67.30
2022-12-14T13:33:33.185Z,67.67
2022-12-14T13:37:04.209Z,67.91
2022-12-14T13:40:02.726Z,67.80
2022-12-14T13:42:52.074Z,68.33
2022-12-14T13:45:24.728Z,68.10
2022-12-14T13:47:57.107Z,67.64
2022-12-14T13:50:36.290Z,67.85
2022-12-14T13:53:15.449Z,68.47
2022-12-14T13:55:53.120Z,67.77
2022-12-14T13:58:32.691Z,67.81
2022-12-14T14:01:03.996Z,68.12
2022-12-14T14:03:51.171Z,67.98
2022-12-14T14:06:36.646Z,68.10
2022-12-14T14:09:49.347Z,68.52
2022-12-14T14:12:45.697Z,68.51
2022-12-14T14:15:38.333Z,68.30
2022-12-14T14:18:16.593Z,68.99
2022-12-14T14:20:49.906Z,69.67
2022-12-14T14:23:52.938Z,70.13
2022-12-14T14:26:28.083Z,69.96
2022-12-14T14:29:28.017Z,69.83
2022-12-14T14:32:00.754Z,70.08
2022-12-14T14:34:49.895Z,70.62
2022-12-14T14:37:31.753Z,70.67
2022-12-14T14:40:20.692Z,70.80
2022-12-14T14:43:00.303Z,71.22
2022-12-14T14:45:40.863Z,70.86
2022-12-14T14:48:28.184Z,71.32
2022-12-14T14:51:09.671Z,71.32
2022-12-14T14:53:38.903Z,71.53
2022-12-14T14:56:39.762Z,71.27
2022-12-14T14:59:43.411Z,70.70
2022-12-14T15:02:34.954Z,71.54
2022-12-14T15:05:33.399Z,71.80
2022-12-14T15:07:58.470Z,71.88
2022-12-14T15:10:35.426Z,71.99
2022-12-14T15:13:08.689Z,72.07
2022-12-14T15:15:42.357Z,71.76
2022-12-14T15:18:23.631Z,71.18
2022-12-14T15:20:59.269Z,71.62
2022-12-14T15:23:34.182Z,72.14
2022-12-14T15:26:04.874Z,72.46
2022-12-14T15:28:33.388Z,72.85
2022-12-14T15:31:01.700Z,72.80
2022-12-14T15:33:36.579Z,73.12
2022-12-14T15:36:08.090Z,73.41
2022-12-14T15:38:38.111Z,73.35
2022-12-14T15:41:15.415Z,73.14
2022-12-14T15:43:45.859Z,73.24
2022-12-14T15:46:20.993Z,73.50
2022-12-14T15:48:58.081Z,73.49
2022-12-14T15:51:32.636Z,73.24
2022-12-14T15:54:04.285Z,72.96
2022-12-14T15:56:37.092Z,73.16
2022-12-14T15:59:16.684Z,72.50
2022-12-14T16:01:53.541Z,72.89
2022-12-14T16:04:29.143Z,72.87
2022-12-14T16:07:08.434Z,72.72
2022-12-14T16:09:43.167Z,73.20
2022-12-14T16:12:20.469Z,73.71
2022-12-14T16:14:56.727Z,74.02
2022-12-14T16:17:32.218Z,74.49
2022-12-14T16:20:17.679Z,74.52
2022-12-14T16:23:01.398Z,74.44
2022-12-14T16:25:31.266Z,73.73
2022-12-14T16:28:20.968Z,74.17
2022-12-14T16:31:00.327Z,74.31
2022-12-14T16:33:29.763Z,74.24
2022-12-14T16:36:09.563Z,74.16
2022-12-14T16:38:54.621Z,74.01
2022-12-14T16:41:36.918Z,74.30
2022-12-14T16:44:08.699Z,74.50
2022-12-14T16:46:37.526Z,74.71
2022-12-14T16:49:30.383Z,74.91
2022-12-14T16:52:07.654Z,74.94
2022-12-14T16:54:38.697Z,75.05
2022-12-14T16:57:22.103Z,75.02
2022-12-14T17:00:00.209Z,74.48
2022-12-14T17:02:33.483Z,74.70
2022-12-14T17:05:06.902Z,74.67
2022-12-14T17:07:39.176Z,74.83
2022-12-14T17:10:16.197Z,74.64
2022-12-14T17:12:45.112Z,74.75
2022-12-14T17:15:15.530Z,74.69
2022-12-14T17:17:45.647Z,74.91
2022-12-14T17:20:24.801Z,75.29
2022-12-14T17:22:58.434Z,75.63
2022-12-14T17:25:28.122Z,75.56
2022-12-14T17:27:56.759Z,75.68
2022-12-14T17:30:26.832Z,75.91
2022-12-14T17:32:56.648Z,75.72
2022-12-14T17:35:28.629Z,75.44
2022-12-14T17:37:58.160Z,75.02
2022-12-14T17:40:26.943Z,75.15
2022-12-14T17:42:58.675Z,74.69
2022-12-14T17:45:30.408Z,74.47
2022-12-14T17:47:59.299Z,74.89
2022-12-14T17:50:27.392Z,74.98
2022-12-14T17:52:56.966Z,74.82
2022-12-14T17:55:27.658Z,74.75
2022-12-14T17:57:57.750Z,74.79
2022-12-14T18:00:47.245Z,74.89
2022-12-14T18:03:18.210Z,75.12
2022-12-14T18:05:50.106Z,74.87
2022-12-14T18:08:21.062Z,75.17
2022-12-14T18:10:53.329Z,74.86
2022-12-14T18:13:21.453Z,73.93
2022-12-14T18:15:52.754Z,74.71
2022-12-14T18:18:27.513Z,75.10
2022-12-14T18:21:00.131Z,75.15
2022-12-14T18:23:31.714Z,74.75
2022-12-14T18:26:02.599Z,74.69
2022-12-14T18:28:30.706Z,75.22
2022-12-14T18:31:04.787Z,75.60
2022-12-14T18:33:34.481Z,75.75
2022-12-14T18:36:03.063Z,75.79
2022-12-14T18:38:32.631Z,75.26
2022-12-14T18:41:03.129Z,75.12
2022-12-14T18:43:32.889Z,75.38
2022-12-14T18:46:01.544Z,75.24
2022-12-14T18:48:29.791Z,75.47
2022-12-14T18:50:58.282Z,75.47
2022-12-14T18:53:28.001Z,75.17
2022-12-14T18:55:58.049Z,75.28
2022-12-14T18:58:28.453Z,75.42
2022-12-14T19:01:00.507Z,75.82
2022-12-14T19:03:31.978Z,76.01
2022-12-14T19:06:34.809Z,76.19
2022-12-14T19:08:54.780Z,76.80
2022-12-14T19:11:32.775Z,77.04
2022-12-14T19:14:02.010Z,77.30
2022-12-14T19:16:30.647Z,77.60
2022-12-14T19:18:59.606Z,78.05
2022-12-14T19:21:29.304Z,78.40
2022-12-14T19:23:59.295Z,78.50
2022-12-14T19:26:29.560Z,78.66
2022-12-14T19:28:58.487Z,79.20
2022-12-14T19:31:27.161Z,79.69
2022-12-14T19:33:55.769Z,80.21
2022-12-14T19:36:24.917Z,80.44
2022-12-14T19:38:53.061Z,80.60
2022-12-14T19:41:21.432Z,81.01
2022-12-14T19:43:50.963Z,81.26
2022-12-14T19:46:19.153Z,81.49
2022-12-14T19:48:47.523Z,81.61
2022-12-14T19:51:16.133Z,82.23
2022-12-14T19:53:47.216Z,82.08
2022-12-14T19:56:18.483Z,81.99
2022-12-14T19:58:47.718Z,81.92
2022-12-14T20:01:18.636Z,82.16
2022-12-14T20:03:47.084Z,82.46
2022-12-14T20:06:15.267Z,82.76
2022-12-14T20:08:43.612Z,82.94
2022-12-14T20:11:12.936Z,83.19
2022-12-14T20:13:41.047Z,83.27
2022-12-14T20:16:15.962Z,83.44
2022-12-14T20:18:45.684Z,83.43
2022-12-14T20:21:21.668Z,83.58
2022-12-14T20:23:51.133Z,83.66
2022-12-14T20:26:22.519Z,83.54
2022-12-14T20:28:52.910Z,83.51
2022-12-14T20:31:22.338Z,83.45
2022-12-14T20:33:52.789Z,83.36
2022-12-14T20:36:22.099Z,83.13
2022-12-14T20:38:56.072Z,83.31
2022-12-14T20:41:24.427Z,83.25
2022-12-14T20:43:52.818Z,83.23
2022-12-14T20:46:31.390Z,83.13
2022-12-14T20:49:04.137Z,83.15
2022-12-14T20:51:35.183Z,83.11
2022-12-14T20:54:05.222Z,83.43
2022-12-14T20:56:34.922Z,83.41
2022-12-14T20:59:03.650Z,83.78
2022-12-14T21:01:31.929Z,83.84
2022-12-14T21:04:03.098Z,84.12
2022-12-14T21:06:32.992Z,83.56
2022-12-14T21:09:06.356Z,83.20
2022-12-14T21:11:55.348Z,83.34
2022-12-14T21:14:26.183Z,83.83
2022-12-14T21:16:55.072Z,84.00
2022-12-14T21:19:25.073Z,84.00
2022-12-14T21:21:54.367Z,84.03
2022-12-14T21:25:02.232Z,84.10
2022-12-14T21:27:18.488Z,83.98
2022-12-14T21:29:47.438Z,84.15
2022-12-14T21:32:18.143Z,84.07
2022-12-14T21:34:48.715Z,83.75
2022-12-14T21:37:17.394Z,83.64
2022-12-14T21:39:52.183Z,83.59
2022-12-14T21:42:22.060Z,83.73
2022-12-14T21:44:52.107Z,83.77
2022-12-14T21:47:23.021Z,83.66
2022-12-14T21:49:52.662Z,83.61
2022-12-14T21:52:23.876Z,83.71
2022-12-14T21:54:52.424Z,83.59
2022-12-14T21:57:41.912Z,83.53
2022-12-14T22:00:12.242Z,83.20
2022-12-14T22:02:41.628Z,83.20
2022-12-14T22:05:11.780Z,82.83
2022-12-14T22:07:39.857Z,82.45
2022-12-14T22:10:08.890Z,82.39
2022-12-14T22:12:37.217Z,82.14
2022-12-14T22:15:06.104Z,82.45
2022-12-14T22:17:34.660Z,82.65
2022-12-14T22:20:03.030Z,83.06
2022-12-14T22:22:32.473Z,83.22
2022-12-14T22:25:01.374Z,82.89
2022-12-14T22:27:29.578Z,83.13
2022-12-14T22:29:57.732Z,83.01
2022-12-14T22:32:26.103Z,83.18
2022-12-14T22:34:54.202Z,83.05
2022-12-14T22:37:22.359Z,82.87
2022-12-14T22:39:51.915Z,82.66
2022-12-14T22:42:20.041Z,82.49
2022-12-14T22:44:49.932Z,82.64
2022-12-14T22:47:18.063Z,82.80
2022-12-14T22:49:47.070Z,82.92
2022-12-14T22:52:18.548Z,82.61
2022-12-14T22:54:50.993Z,82.68
2022-12-14T22:57:22.398Z,82.72
2022-12-14T22:59:58.319Z,82.51
2022-12-14T23:02:26.921Z,82.92
2022-12-14T23:04:55.235Z,83.04
2022-12-14T23:07:24.012Z,82.81
2022-12-14T23:10:11.008Z,82.55
2022-12-14T23:12:56.906Z,82.52
2022-12-14T23:15:42.642Z,82.43
2022-12-14T23:18:28.153Z,82.49
2022-12-14T23:21:15.291Z,82.48
2022-12-14T23:24:04.014Z,82.85
2022-12-14T23:26:52.294Z,82.77
2022-12-14T23:29:38.166Z,82.35
2022-12-14T23:32:24.177Z,82.36
2022-12-14T23:35:10.043Z,82.23
2022-12-14T23:37:55.892Z,82.33
2022-12-14T23:40:41.478Z,82.30
2022-12-14T23:43:30.111Z,81.84
2022-12-14T23:46:16.741Z,81.92
2022-12-14T23:49:02.436Z,81.93
2022-12-14T23:51:48.869Z,82.04
2022-12-14T23:54:34.713Z,82.26
2022-12-14T23:57:22.749Z,82.66
